Nearby METAR Reports

 

KDVT - Phoenix/Deer Vly, Arizona, USA
Distance from station: SSE 14mi, 22km
Updated: 08/10/2020 12:53am
Clear
Clear
 Wind from calm
Wind: Calm
Temperature: 84°F , 29°C
Dew Point: 36°F , 2°C
Humidity: 18%
Barometer: 29.83 inHg , 1010.2 hPa
Clouds: Clear
Visibility: 10 miles , 16 km
2020/08/10 07:53 KDVT 100753Z AUTO 00000KT 10SM CLR 29/02 A2983 RMK AO2 SLP073 T02890022
KSDL - Scottsdale, Arizona, USA
Distance from station: SE 22mi, 35km
Updated: 08/10/2020 12:53am
Clear
Clear
 Wind from NW
Wind: NW 3 mph , 6 km/h
Temperature: 90°F , 32°C
Dew Point: 41°F , 5°C
Humidity: 18%
Barometer: 29.84 inHg , 1010.5 hPa
Clouds: Clear
Visibility: 10 miles , 16 km
2020/08/10 07:53 KSDL 100753Z AUTO 31003KT 10SM CLR 32/05 A2984 RMK AO2 SLP074 T03170050
 
KGEU - Glendale, Arizona, USA
Distance from station: SSW 25mi, 41km
Updated: 08/09/2020 5:47pm
NOT Current
Clear
Clear
 Wind from SSW
Wind: SSW 13 mph , 20 km/h
Temperature: 109°F , 43°C
Dew Point: 32°F , 0°C
Humidity: 7%
Barometer: 29.77 inHg , 1008.1 hPa
Clouds: Clear
Visibility: 10 miles , 16 km
2020/08/10 00:47 KGEU 100047Z 20011KT 10SM SKC 43/00 A2977 RMK LAST
KLUF - Luke Afb/Glendal, Arizona, USA
Distance from station: SSW 28mi, 45km
Updated: 08/10/2020 12:58am
Clear
Clear
 Wind from W
Wind: W 5 mph , 7 km/h
Temperature: 90°F , 32°C
Dew Point: 34°F , 1°C
Humidity: 14%
Barometer: 29.80 inHg , 1009.1 hPa
Clouds: Clear
Visibility: 9 miles , 14 km
2020/08/10 07:58 KLUF 100758Z AUTO 28004KT 9SM CLR 32/01 A2980 RMK AO2 SLP074 T03230014
 
KPHX - Phoenix/Sky Hrbr, Arizona, USA
Distance from station: SSE 31mi, 51km
Updated: 08/10/2020 12:51am
Clear
Clear
 Wind from calm
Wind: Calm
Temperature: 93°F , 34°C
Dew Point: 43°F , 6°C
Humidity: 17%
Barometer: 29.80 inHg , 1009.1 hPa
Clouds: Clear
Visibility: 10 miles , 16 km
2020/08/10 07:51 KPHX 100751Z 00000KT 10SM CLR 34/06 A2980 RMK AO2 SLP067 T03440061
KGYR - Goodyear Municip, Arizona, USA
Distance from station: SSW 34mi, 55km
Updated: 08/09/2020 8:47pm
NOT Current
Clear
Clear
 Wind from W
Wind: W 5 mph , 7 km/h
Temperature: 100°F , 38°C
Dew Point: 41°F , 5°C
Humidity: 13%
Barometer: 29.77 inHg , 1008.1 hPa
Clouds: Clear
Visibility: 10 miles , 16 km
2020/08/10 03:47 KGYR 100347Z 28004KT 10SM SKC 38/05 A2977 RMK LAST
 
KFFZ - Mesa/Falcon Fld, Arizona, USA
Distance from station: SE 37mi, 60km
Updated: 08/10/2020 12:54am
Clear
Clear
 Wind from calm
Wind: Calm
Temperature: 88°F , 31°C
Dew Point: 46°F , 8°C
Humidity: 24%
Barometer: 29.83 inHg , 1010.2 hPa
Clouds: Clear
Visibility: 10 miles , 16 km
2020/08/10 07:54 KFFZ 100754Z AUTO 00000KT 10SM CLR 31/08 A2983 RMK AO2 SLP072 T03110083
KBXK - Buckeye, Arizona, USA
Distance from station: SW 45mi, 72km
Updated: 08/10/2020 1:35am
Clear
Clear
 Wind from N
Wind: N 8 mph , 13 km/h
Temperature: 86°F , 30°C
Dew Point: 30°F , -1°C
Humidity: 13%
Barometer: 29.82 inHg , 1009.8 hPa
Clouds: Clear
Visibility: 10 miles , 16 km
2020/08/10 08:35 KBXK 100835Z AUTO 35007KT 10SM CLR 30/M01 A2982 RMK A01
 
KIWA - Chandler/Mesa, Arizona, USA
Distance from station: SE 49mi, 78km
Updated: 08/10/2020 1:35am
Clear
Clear
 Wind from calm
Wind: Calm
Temperature: 86°F , 30°C
Dew Point: 43°F , 6°C
Humidity: 22%
Barometer: 29.85 inHg , 1010.8 hPa
Clouds: Clear
Visibility: 10 miles , 16 km
2020/08/10 08:35 KIWA 100835Z AUTO 00000KT 10SM CLR 30/06 A2985 RMK AO2 T02990061
KPAN - Payson, Arizona, USA
Distance from station: ENE 53mi, 85km
Updated: 08/10/2020 1:35am
Clear
Clear
 Wind from calm
Wind: Calm
Temperature: 70°F , 21°C
Dew Point: 30°F , -1°C
Humidity: 23%
Barometer: 30.18 inHg , 1022 hPa
Clouds: Clear
Visibility: 10 miles , 16 km
2020/08/10 08:35 KPAN 100835Z AUTO 00000KT 10SM CLR 21/M01 A3018 RMK AO2
 
KPRC - Prescott, Arizona, USA
Distance from station: NNW 56mi, 90km
Updated: 08/10/2020 12:53am
Clear
Clear
 Wind from NW
Wind: NW 6 mph , 9 km/h
Temperature: 66°F , 19°C
Dew Point: 28°F , -2°C
Humidity: 24%
Barometer: 30.16 inHg , 1021.3 hPa
Clouds: Clear
Visibility: 10 miles , 16 km
2020/08/10 07:53 KPRC 100753Z AUTO 31005KT 10SM CLR 19/M02 A3016 RMK AO2 SLP121 T01891022
KCGZ - Casa Granda, Arizona, USA
Distance from station: SSE 67mi, 109km
Updated: 08/10/2020 12:56am
Clear
Clear
 Wind from W
Wind: W 6 mph , 9 km/h
Temperature: 86°F , 30°C
Dew Point: 36°F , 2°C
Humidity: 17%
Barometer: 29.86 inHg , 1011.2 hPa
Clouds: Clear
Visibility: 10 miles , 16 km
2020/08/10 07:56 KCGZ 100756Z AUTO 26005KT 10SM CLR 30/02 A2986 RMK AO2 SLP090 T03000022
 
KSEZ - Sedona, Arizona, USA
Distance from station: NNE 70mi, 113km
Updated: 08/10/2020 1:35am
Clear
Clear
 Wind from NNE
Wind: NNE 8 mph , 13 km/h
Temperature: 73°F , 23°C
Dew Point: 30°F , -1°C
Humidity: 20%
Barometer: 30.14 inHg , 1020.7 hPa
Clouds: Clear
Visibility: 10 miles , 16 km
2020/08/10 08:35 KSEZ 100835Z AUTO 02007KT 10SM CLR 23/M01 A3014 RMK AO2
KGXF - Gila Bend (aaf), Arizona, USA
Distance from station: SSW 77mi, 124km
Updated: 08/10/2020 12:58am
Clear
Clear
 Wind from S
Wind: S 8 mph , 13 km/h
Temperature: 90°F , 32°C
Dew Point: 36°F , 2°C
Humidity: 15%
Barometer: 29.80 inHg , 1009.1 hPa
Clouds: Clear
Visibility: 10 miles , 16 km
2020/08/10 07:58 KGXF 100758Z AUTO 19007KT 10SM CLR 32/02 A2980 RMK AO2 SLP076 T03170019
 
KP08 - Coolidge Muni, Arizona, USA
Distance from station: SSE 77mi, 124km
Updated: 07/23/2020 8:10am
NOT Current
Nearby thunderstorm, Clear
Nearby thunderstorm, Clear
 Wind from SE
Wind: SE 20 mph , 31 km/h, Gust: 25 mph , 41 km/h
Temperature: 81°F , 27°C
Heat Index: 83°F , 28°C
Dew Point: 66°F , 19°C
Humidity: 62%
Barometer: 29.93 inHg , 1013.5 hPa
Summary: Nearby Thunderstorm
Clouds: Clear
Visibility: 10 miles , 16 km
2020/07/23 15:10 KP08 231510Z AUTO 14017G22KT 10SM VCTS CLR 27/19 A2993 RMK LTNG DSNT SE-S
KFLG - Flagstaff, Arizona, USA
Distance from station: NNE 91mi, 146km
Updated: 08/10/2020 12:57am
Clear
Clear
 Wind from calm
Wind: Calm
Temperature: 54°F , 12°C
Dew Point: 25°F , -4°C
Humidity: 33%
Barometer: 30.32 inHg , 1026.8 hPa
Clouds: Clear
Visibility: 10 miles , 16 km
2020/08/10 07:57 KFLG 100757Z AUTO 00000KT 10SM CLR 12/M04 A3032 RMK AO2 SLP157 T01221039
 
KCMR - Williams Clark, Arizona, USA
Distance from station: N 98mi, 158km
Updated: 08/10/2020 1:15am
Clear
Clear
 Wind from SSE
Wind: SSE 9 mph , 15 km/h
Temperature: 54°F , 12°C
Dew Point: 23°F , -5°C
Humidity: 30%
Barometer: 30.29 inHg , 1025.7 hPa
Clouds: Clear
Visibility: 10 miles , 16 km
2020/08/10 08:15 KCMR 100815Z AUTO 16008KT 10SM CLR 12/M05 A3029 RMK AO2